Time;durP1;ratioP1;P1;durP2;ratioP2;P2;SDS_P1;SDS_P2;PMS_P1;PMS_P2;Temp;Humidity;BMP_temperature;BMP_pressure;BME280_temperature;BME280_humidity;BME280_pressure;Samples;Min_cycle;Max_cycle;Signal;HPM_P1;HPM_P2
2021/11/26 00:02:26;;;;;;;16.45;8.07;;;;;;;-149.78;100.00;50510.56;5028886;28;20447;-66
2021/11/26 00:04:53;;;;;;;16.58;7.30;;;;;;;-149.78;100.00;50510.56;5027725;28;20041;-66
2021/11/26 00:07:20;;;;;;;18.50;8.13;;;;;;;-149.78;100.00;50530.13;5031499;28;20091;-66
2021/11/26 00:09:50;;;;;;;21.40;7.72;;;;;;;-149.78;100.00;50471.44;5032380;28;20465;-66
2021/11/26 00:12:16;;;;;;;14.52;7.35;;;;;;;-149.78;100.00;50469.50;5030949;28;20030;-66
2021/11/26 00:15:06;;;;;;;16.52;6.28;;;;;;;-149.78;100.00;50467.53;5032660;28;20041;-66
2021/11/26 00:17:30;;;;;;;11.52;5.35;;;;;;;-149.78;100.00;50520.34;5030878;28;20482;-66
2021/11/26 00:19:55;;;;;;;11.00;5.15;;;;;;;-149.78;100.00;50496.88;5031488;28;20037;-66
2021/11/26 00:22:21;;;;;;;8.95;5.13;;;;;;;-149.78;100.00;50491.00;5028218;28;20026;-66
2021/11/26 00:24:49;;;;;;;14.35;5.43;;;;;;;-149.78;100.00;50469.50;5030965;28;20029;-66
2021/11/26 00:27:15;;;;;;;11.30;5.00;;;;;;;-149.78;100.00;50494.91;5027124;28;20116;-66
2021/11/26 00:29:40;;;;;;;14.48;4.78;;;;;;;-149.78;100.00;50491.00;5030100;28;20191;-66
2021/11/26 00:32:06;;;;;;;10.80;4.50;;;;;;;-149.78;100.00;50473.41;5027987;28;20460;-66
2021/11/26 00:34:33;;;;;;;7.65;4.32;;;;;;;-149.78;100.00;50500.78;5033060;28;20033;-66
2021/11/26 00:36:58;;;;;;;7.20;4.68;;;;;;;-149.78;100.00;50502.75;5035793;28;20094;-66
2021/11/26 00:39:25;;;;;;;12.75;4.95;;;;;;;-149.78;100.00;50485.13;5036909;28;20051;-66
2021/11/26 00:41:50;;;;;;;15.35;4.47;;;;;;;-149.78;100.00;50479.28;5026516;28;20034;-66
2021/11/26 00:44:16;;;;;;;11.35;4.32;;;;;;;-149.78;100.00;50463.63;5030921;28;20473;-66
2021/11/26 00:46:42;;;;;;;8.32;3.30;;;;;;;-149.78;100.00;50502.75;5025797;28;20037;-66
2021/11/26 00:49:08;;;;;;;10.65;4.28;;;;;;;-149.78;100.00;50479.28;5035822;28;20037;-66
2021/11/26 00:51:33;;;;;;;10.85;3.75;;;;;;;-149.78;100.00;50475.34;5033791;28;20168;-66
2021/11/26 00:54:00;;;;;;;6.85;3.78;;;;;;;-149.78;100.00;50471.44;5035198;28;20047;-66
2021/11/26 00:56:25;;;;;;;6.80;3.50;;;;;;;-149.78;100.00;50467.53;5034624;28;20396;-66
2021/11/26 00:58:51;;;;;;;8.63;3.70;;;;;;;-149.78;100.00;50479.28;5038310;28;20036;-66
2021/11/26 01:01:17;;;;;;;12.85;3.13;;;;;;;-149.78;100.00;50502.75;5036320;28;20389;-66
2021/11/26 01:03:43;;;;;;;12.02;3.15;;;;;;;-149.78;100.00;50494.91;5031304;28;20116;-66
2021/11/26 01:06:08;;;;;;;10.93;3.38;;;;;;;-149.78;100.00;50447.97;5031706;28;20428;-66
2021/11/26 01:08:34;;;;;;;10.05;3.20;;;;;;;-149.78;100.00;50494.91;5034499;28;20033;-66
2021/11/26 01:11:00;;;;;;;11.07;2.95;;;;;;;-149.78;100.00;50467.53;5035498;28;20095;-66
2021/11/26 01:13:26;;;;;;;8.65;2.65;;;;;;;-149.78;100.00;50469.50;5034017;28;20385;-66
2021/11/26 01:15:52;;;;;;;8.95;2.92;;;;;;;-149.78;100.00;50492.97;5034438;28;20045;-66
2021/11/26 01:18:18;;;;;;;16.80;3.75;;;;;;;-149.78;100.00;50502.75;5034834;28;20484;-66
2021/11/26 01:20:45;;;;;;;8.32;2.92;;;;;;;-149.78;100.00;50467.53;5034516;28;20029;-66
2021/11/26 01:23:11;;;;;;;12.70;2.83;;;;;;;-149.78;100.00;50455.81;5035428;28;20057;-66
2021/11/26 01:25:37;;;;;;;14.38;2.90;;;;;;;-149.78;100.00;50530.13;5033416;28;20440;-66
2021/11/26 01:28:03;;;;;;;7.90;2.50;;;;;;;-149.78;100.00;50475.34;5033624;28;20099;-66
2021/11/26 01:30:36;;;;;;;8.88;2.25;;;;;;;-149.78;100.00;50492.97;5036566;28;20516;-66
2021/11/26 01:33:07;;;;;;;7.30;2.47;;;;;;;-149.78;100.00;50475.34;5040867;28;20037;-66
2021/11/26 01:35:35;;;;;;;5.85;2.47;;;;;;;-149.78;100.00;50467.53;5031172;28;20371;-66
2021/11/26 01:38:01;;;;;;;11.07;3.10;;;;;;;-149.78;100.00;50518.38;5024883;28;20503;-66
2021/11/26 01:40:26;;;;;;;13.55;3.03;;;;;;;-149.78;100.00;50475.34;5035527;28;20052;-66
2021/11/26 01:42:54;;;;;;;10.27;2.80;;;;;;;-149.78;100.00;50483.19;5030547;28;20045;-66
2021/11/26 01:45:21;;;;;;;10.52;2.40;;;;;;;-149.78;100.00;50479.28;5034277;28;20041;-66
2021/11/26 01:47:47;;;;;;;6.65;1.92;;;;;;;-149.78;100.00;50541.84;5032090;28;20029;-66
2021/11/26 01:50:14;;;;;;;9.98;2.92;;;;;;;-149.78;100.00;50467.53;5034086;28;20045;-66
2021/11/26 01:52:40;;;;;;;8.35;2.20;;;;;;;-149.78;100.00;50471.44;5035055;28;20061;-66
2021/11/26 01:55:09;;;;;;;10.55;2.70;;;;;;;-149.78;100.00;50491.00;5032618;28;20504;-66
2021/11/26 01:57:35;;;;;;;4.45;2.20;;;;;;;-149.78;100.00;50492.97;5033883;28;20124;-66
2021/11/26 02:00:01;;;;;;;6.40;2.38;;;;;;;-149.78;100.00;50446.03;5035286;28;20133;-66
2021/11/26 02:02:27;;;;;;;8.73;2.13;;;;;;;-149.78;100.00;50459.72;5031904;28;20022;-66
2021/11/26 02:04:53;;;;;;;10.48;2.42;;;;;;;-149.78;100.00;50463.63;5034821;28;20436;-66
2021/11/26 02:07:18;;;;;;;9.73;2.30;;;;;;;-149.78;100.00;50489.03;5033781;28;20132;-66
2021/11/26 02:09:44;;;;;;;4.95;2.03;;;;;;;-149.78;100.00;50479.28;5029955;28;20040;-66
2021/11/26 02:12:10;;;;;;;7.97;2.22;;;;;;;-149.78;100.00;50516.44;5020054;28;20056;-66
2021/11/26 02:14:36;;;;;;;9.00;2.28;;;;;;;-149.78;100.00;50483.19;5024085;28;20128;-66
2021/11/26 02:17:02;;;;;;;10.40;1.95;;;;;;;-149.78;100.00;50463.63;5021811;28;20029;-66
2021/11/26 02:19:28;;;;;;;3.80;1.80;;;;;;;-149.78;100.00;50451.88;5024170;28;20152;-66
2021/11/26 02:21:54;;;;;;;5.13;1.73;;;;;;;-149.78;100.00;50471.44;5022897;28;20030;-66
2021/11/26 02:24:21;;;;;;;12.43;3.00;;;;;;;-149.78;100.00;50479.28;5019101;28;20045;-66
2021/11/26 02:26:49;;;;;;;4.03;1.40;;;;;;;-149.78;100.00;50447.97;5020099;28;20029;-66
2021/11/26 02:29:17;;;;;;;4.35;1.83;;;;;;;-149.78;100.00;50451.88;5032008;28;20041;-66
2021/11/26 02:31:44;;;;;;;4.85;1.52;;;;;;;-149.78;100.00;50475.34;5032288;28;20047;-66
2021/11/26 02:34:10;;;;;;;2.20;1.33;;;;;;;-149.78;100.00;50483.19;5029511;28;20037;-66
2021/11/26 02:36:36;;;;;;;2.42;1.20;;;;;;;-149.78;100.00;50514.47;5032091;28;20037;-66
2021/11/26 02:39:08;;;;;;;6.68;2.15;;;;;;;-149.78;100.00;50491.00;5033404;28;20036;-66
2021/11/26 02:41:38;;;;;;;4.95;1.50;;;;;;;-149.78;100.00;50463.63;5028386;28;20032;-66
2021/11/26 02:44:05;;;;;;;5.05;1.42;;;;;;;-149.78;100.00;50479.28;5029878;28;20487;-66
2021/11/26 02:46:30;;;;;;;6.75;1.38;;;;;;;-149.78;100.00;50502.75;5033505;28;20040;-66
2021/11/26 02:48:56;;;;;;;3.25;1.00;;;;;;;-149.78;100.00;50483.19;5031507;28;20037;-66
2021/11/26 02:51:22;;;;;;;3.13;0.90;;;;;;;-149.78;100.00;50471.44;5028979;28;20044;-66
2021/11/26 02:53:47;;;;;;;2.03;0.95;;;;;;;-149.78;100.00;50451.88;5033458;28;20112;-66
2021/11/26 02:56:13;;;;;;;1.58;1.13;;;;;;;-149.78;100.00;50475.34;5032266;28;20041;-66
2021/11/26 02:58:40;;;;;;;2.70;1.13;;;;;;;-149.78;100.00;50498.81;5033405;28;20025;-66
2021/11/26 03:01:05;;;;;;;5.93;1.17;;;;;;;-149.78;100.00;50463.63;5040005;28;20036;-66
2021/11/26 03:03:31;;;;;;;3.30;1.20;;;;;;;-149.78;100.00;50483.19;5032593;28;20026;-66
2021/11/26 03:06:01;;;;;;;3.28;1.40;;;;;;;-149.78;100.00;50471.44;5028217;28;20029;-66
2021/11/26 03:08:28;;;;;;;2.35;1.30;;;;;;;-149.78;100.00;50500.78;5036227;28;20079;-66
2021/11/26 03:10:54;;;;;;;3.75;1.15;;;;;;;-149.78;100.00;50463.63;5027062;28;20117;-66
2021/11/26 03:13:20;;;;;;;2.80;1.35;;;;;;;-149.78;100.00;50467.53;5029885;28;20038;-66
2021/11/26 03:15:46;;;;;;;3.83;1.42;;;;;;;-149.78;100.00;50465.56;5032444;28;20083;-66
2021/11/26 03:18:18;;;;;;;3.60;1.30;;;;;;;-149.78;100.00;50487.09;5033377;28;20056;-66
2021/11/26 03:20:45;;;;;;;3.80;1.27;;;;;;;-149.78;100.00;50432.31;5029912;28;20033;-66
2021/11/26 03:23:10;;;;;;;2.20;1.50;;;;;;;-149.78;100.00;50471.44;5030354;28;20037;-66
2021/11/26 03:25:36;;;;;;;6.63;1.30;;;;;;;-149.78;100.00;50475.34;5021817;28;20041;-66
2021/11/26 03:28:02;;;;;;;6.95;1.48;;;;;;;-149.78;100.00;50487.09;5028778;28;20053;-66
2021/11/26 03:30:28;;;;;;;7.85;1.63;;;;;;;-149.78;100.00;50436.25;5029300;28;20444;-66
2021/11/26 03:32:56;;;;;;;3.50;1.90;;;;;;;-149.78;100.00;50494.91;5025671;28;20053;-66
2021/11/26 03:35:23;;;;;;;9.75;2.00;;;;;;;-149.78;100.00;50463.63;5032654;28;20083;-66
2021/11/26 03:37:49;;;;;;;7.25;1.65;;;;;;;-149.78;100.00;50471.44;5033745;28;20037;-66
2021/11/26 03:40:18;;;;;;;4.90;2.03;;;;;;;-149.78;100.00;50506.66;5022639;28;20052;-66
2021/11/26 03:42:43;;;;;;;6.03;1.63;;;;;;;-149.78;100.00;50475.34;5027281;28;20381;-66
2021/11/26 03:45:09;;;;;;;8.63;1.55;;;;;;;-149.78;100.00;50461.66;5031065;28;20041;-66
2021/11/26 03:47:36;;;;;;;5.93;1.40;;;;;;;-149.78;100.00;50463.63;5032304;28;20560;-66
2021/11/26 03:50:01;;;;;;;3.00;1.50;;;;;;;-149.78;100.00;50475.34;5032218;28;20064;-66
2021/11/26 03:52:27;;;;;;;6.82;1.80;;;;;;;-149.78;100.00;50430.38;5032698;28;20469;-66
2021/11/26 03:54:53;;;;;;;5.65;1.80;;;;;;;-149.78;100.00;50487.09;5030990;28;20041;-66
2021/11/26 03:57:18;;;;;;;4.22;1.67;;;;;;;-149.78;100.00;50483.19;5029845;28;20445;-66
2021/11/26 03:59:44;;;;;;;2.75;1.60;;;;;;;-149.78;100.00;50451.88;5029796;28;20039;-66
2021/11/26 04:02:09;;;;;;;6.55;2.28;;;;;;;-149.78;100.00;50471.44;5032222;28;20393;-66
2021/11/26 04:04:36;;;;;;;3.85;1.85;;;;;;;-149.78;100.00;50471.44;5032616;28;20072;-66
2021/11/26 04:07:02;;;;;;;4.65;2.08;;;;;;;-149.78;100.00;50510.56;5029950;28;20427;-67
2021/11/26 04:09:28;;;;;;;4.55;2.05;;;;;;;-149.78;100.00;50463.63;5031753;28;20492;-67
2021/11/26 04:11:54;;;;;;;3.72;2.08;;;;;;;-149.78;100.00;50440.16;5031884;28;20080;-67
2021/11/26 04:14:20;;;;;;;4.03;1.67;;;;;;;-149.78;100.00;50502.75;5025373;28;20180;-67
2021/11/26 04:16:47;;;;;;;4.97;1.85;;;;;;;-149.78;100.00;50428.41;5030830;28;20120;-67
2021/11/26 04:19:13;;;;;;;5.60;1.80;;;;;;;-149.78;100.00;50489.03;5030283;28;20400;-67
2021/11/26 04:21:38;;;;;;;2.58;1.40;;;;;;;-149.78;100.00;50447.97;5031764;28;20036;-67
2021/11/26 04:24:04;;;;;;;4.75;1.92;;;;;;;-149.78;100.00;50498.81;5031497;28;20048;-67
2021/11/26 04:26:30;;;;;;;6.15;1.85;;;;;;;-149.78;100.00;50491.00;5031596;28;20044;-67
2021/11/26 04:28:56;;;;;;;5.95;1.92;;;;;;;-149.78;100.00;50455.81;5031316;28;20053;-67
2021/11/26 04:31:22;;;;;;;5.15;1.95;;;;;;;-149.78;100.00;50447.97;5030762;28;20057;-67
2021/11/26 04:33:48;;;;;;;5.75;1.92;;;;;;;-149.78;100.00;50498.81;5032648;28;20083;-67
2021/11/26 04:36:14;;;;;;;2.97;1.80;;;;;;;-149.78;100.00;50463.63;5032281;28;20045;-68
2021/11/26 04:38:40;;;;;;;5.03;1.73;;;;;;;-149.78;100.00;50487.09;5031363;28;20037;-71
2021/11/26 04:41:07;;;;;;;4.63;2.08;;;;;;;-149.78;100.00;50447.97;5030467;28;20095;-70
2021/11/26 04:43:33;;;;;;;6.20;2.10;;;;;;;-149.78;100.00;50471.44;5021576;28;20045;-69
2021/11/26 04:45:59;;;;;;;3.85;1.60;;;;;;;-149.78;100.00;50489.03;5024975;28;20180;-68
2021/11/26 04:48:25;;;;;;;2.67;1.38;;;;;;;-149.78;100.00;50471.44;5024098;28;20030;-67
2021/11/26 04:50:52;;;;;;;2.78;1.35;;;;;;;-149.78;100.00;50469.50;5031348;28;20026;-67
2021/11/26 04:53:19;;;;;;;3.38;1.10;;;;;;;-149.78;100.00;50471.44;5026538;28;20036;-67
2021/11/26 04:55:45;;;;;;;2.28;1.10;;;;;;;-149.78;100.00;50506.66;5031867;28;20041;-67
2021/11/26 04:58:12;;;;;;;1.38;0.90;;;;;;;-149.78;100.00;50487.09;5021533;28;20554;-67
2021/11/26 05:00:38;;;;;;;1.67;0.80;;;;;;;-149.78;100.00;50483.19;5026151;28;20033;-67
2021/11/26 05:03:05;;;;;;;3.88;1.00;;;;;;;-149.78;100.00;50463.63;5015386;28;20030;-67
2021/11/26 05:05:31;;;;;;;1.40;0.70;;;;;;;-149.78;100.00;50459.72;5019245;28;20040;-67
2021/11/26 05:07:57;;;;;;;1.30;0.80;;;;;;;-149.78;100.00;50467.53;5031647;28;20033;-67
2021/11/26 05:10:24;;;;;;;1.88;1.20;;;;;;;-149.78;100.00;50463.63;5030594;28;20071;-68
2021/11/26 05:12:53;;;;;;;4.43;1.40;;;;;;;-149.78;100.00;50463.63;5029439;28;20040;-68
2021/11/26 05:15:24;;;;;;;1.77;1.30;;;;;;;-149.78;100.00;50475.34;5031125;28;20390;-68
2021/11/26 05:18:02;;;;;;;3.95;1.35;;;;;;;-149.78;100.00;50463.63;5025760;28;20056;-68
2021/11/26 05:20:30;;;;;;;3.97;1.67;;;;;;;-149.78;100.00;50447.97;5029864;28;20480;-68
2021/11/26 05:22:56;;;;;;;7.53;1.88;;;;;;;-149.78;100.00;50451.88;5032318;28;20024;-68
2021/11/26 05:25:22;;;;;;;6.13;2.00;;;;;;;-149.78;100.00;50494.91;5021951;28;20369;-68
2021/11/26 05:27:48;;;;;;;3.17;1.50;;;;;;;-149.78;100.00;50487.09;5030351;28;20048;-68
2021/11/26 05:30:14;;;;;;;2.65;1.50;;;;;;;-149.78;100.00;50487.09;5024686;28;20025;-68
2021/11/26 05:32:41;;;;;;;1.88;1.15;;;;;;;-149.78;100.00;50447.97;5024668;28;20381;-68
2021/11/26 05:35:09;;;;;;;4.50;1.67;;;;;;;-149.78;100.00;50436.25;5032277;28;20052;-68
2021/11/26 05:37:34;;;;;;;6.13;1.13;;;;;;;-149.78;100.00;50467.53;5032805;28;20032;-68
2021/11/26 05:40:00;;;;;;;2.30;1.27;;;;;;;-149.78;100.00;50451.88;5032643;28;20050;-68
2021/11/26 05:42:26;;;;;;;2.60;1.27;;;;;;;-149.78;100.00;50489.03;5035562;28;20037;-68
2021/11/26 05:44:51;;;;;;;2.22;1.30;;;;;;;-149.78;100.00;50459.72;5029537;28;20037;-68
2021/11/26 05:47:17;;;;;;;1.92;1.10;;;;;;;-149.78;100.00;50447.97;5034721;28;20033;-68
2021/11/26 05:49:43;;;;;;;4.50;1.27;;;;;;;-149.78;100.00;50477.31;5036340;28;20052;-68
2021/11/26 05:52:09;;;;;;;2.05;1.33;;;;;;;-149.78;100.00;50428.41;5046598;28;20108;-68
2021/11/26 05:54:34;;;;;;;7.18;1.23;;;;;;;-149.78;100.00;50479.28;5033334;28;20099;-68
2021/11/26 05:57:00;;;;;;;2.67;1.10;;;;;;;-149.78;100.00;50467.53;5028636;28;20051;-67
2021/11/26 05:59:26;;;;;;;2.33;1.13;;;;;;;-149.78;100.00;50447.97;5033220;28;20045;-68
2021/11/26 06:01:52;;;;;;;1.65;1.10;;;;;;;-149.78;100.00;50444.06;5027884;28;20033;-68
2021/11/26 06:04:17;;;;;;;1.42;1.10;;;;;;;-149.78;100.00;50471.44;5027804;28;20392;-68
2021/11/26 06:06:43;;;;;;;2.92;1.30;;;;;;;-149.78;100.00;50473.41;5025371;28;20503;-68
2021/11/26 06:09:08;;;;;;;1.83;1.10;;;;;;;-149.78;100.00;50465.56;5035012;28;20112;-68
2021/11/26 06:11:34;;;;;;;2.30;1.42;;;;;;;-149.78;100.00;50465.56;5027592;28;20492;-68
2021/11/26 06:13:59;;;;;;;3.88;1.60;;;;;;;-149.78;100.00;50447.97;5040795;28;20542;-68
2021/11/26 06:16:27;;;;;;;2.50;1.50;;;;;;;-149.78;100.00;50475.34;5033456;28;20480;-68
2021/11/26 06:18:53;;;;;;;2.78;1.60;;;;;;;-149.78;100.00;50492.97;5024539;28;20033;-68
2021/11/26 06:21:19;;;;;;;3.45;1.77;;;;;;;-149.78;100.00;50399.09;5032262;28;20037;-68
2021/11/26 06:23:45;;;;;;;3.08;1.55;;;;;;;-149.78;100.00;50467.53;5033598;28;20500;-68
2021/11/26 06:26:10;;;;;;;6.50;1.80;;;;;;;-149.78;100.00;50428.41;5032515;28;20044;-68
2021/11/26 06:28:36;;;;;;;3.13;1.77;;;;;;;-149.78;100.00;50451.88;5032193;28;20064;-68
2021/11/26 06:31:02;;;;;;;2.30;1.73;;;;;;;-149.78;100.00;50483.19;5032972;28;20377;-68
2021/11/26 06:33:27;;;;;;;3.30;1.83;;;;;;;-149.78;100.00;50459.72;5032802;28;20033;-68
2021/11/26 06:35:54;;;;;;;3.80;1.83;;;;;;;-149.78;100.00;50461.66;5031535;28;20112;-67
2021/11/26 06:38:20;;;;;;;2.97;1.83;;;;;;;-149.78;100.00;50483.19;5034910;28;20033;-68
2021/11/26 06:40:46;;;;;;;2.45;1.63;;;;;;;-149.78;100.00;50447.97;5034671;28;20079;-67
2021/11/26 06:43:11;;;;;;;3.25;1.95;;;;;;;-149.78;100.00;50444.06;5031790;28;20048;-67
2021/11/26 06:45:37;;;;;;;5.80;3.30;;;;;;;-149.78;100.00;50453.84;5033778;28;20029;-67
2021/11/26 06:48:02;;;;;;;6.53;3.25;;;;;;;-149.78;100.00;50467.53;5031253;28;20073;-67
2021/11/26 06:50:28;;;;;;;6.88;2.50;;;;;;;-149.78;100.00;50471.44;5027695;28;20033;-67
2021/11/26 06:52:54;;;;;;;4.60;2.40;;;;;;;-149.78;100.00;50455.81;5027873;28;20061;-67
2021/11/26 06:55:22;;;;;;;3.67;1.73;;;;;;;-149.78;100.00;50463.63;5030879;28;20040;-67
2021/11/26 06:57:48;;;;;;;6.88;1.77;;;;;;;-149.78;100.00;50449.94;5026249;28;20041;-67
2021/11/26 07:00:16;;;;;;;4.97;2.08;;;;;;;-149.78;100.00;50432.31;5033255;28;20087;-67
2021/11/26 07:02:42;;;;;;;1.98;1.00;;;;;;;-149.78;100.00;50440.16;5020633;28;20346;-67
2021/11/26 07:05:08;;;;;;;4.93;0.90;;;;;;;-149.78;100.00;50424.50;5030364;28;20029;-67
2021/11/26 07:07:35;;;;;;;3.60;1.05;;;;;;;-149.78;100.00;50449.94;5032541;28;20108;-67
2021/11/26 07:10:00;;;;;;;10.65;1.33;;;;;;;-149.78;100.00;50479.28;5029739;28;20408;-66
2021/11/26 07:12:26;;;;;;;8.43;1.30;;;;;;;-149.78;100.00;50463.63;5030226;28;20040;-67
2021/11/26 07:14:52;;;;;;;7.32;1.25;;;;;;;-149.78;100.00;50420.59;5017934;28;20500;-67
2021/11/26 07:17:18;;;;;;;4.18;1.17;;;;;;;-149.78;100.00;50430.38;5022329;28;20033;-67
2021/11/26 07:19:47;;;;;;;3.10;1.35;;;;;;;-149.78;100.00;50449.94;5022895;28;20042;-66
2021/11/26 07:22:13;;;;;;;10.25;1.20;;;;;;;-149.78;100.00;50424.50;5021577;28;20034;-67
2021/11/26 07:24:39;;;;;;;8.50;1.08;;;;;;;-149.78;100.00;50440.16;5022899;28;20235;-66
2021/11/26 07:27:05;;;;;;;10.10;1.17;;;;;;;-149.78;100.00;50422.56;5017768;28;20124;-66
2021/11/26 07:29:31;;;;;;;10.80;1.33;;;;;;;-149.78;100.00;50440.16;5018871;28;20096;-66
2021/11/26 07:31:56;;;;;;;9.90;1.58;;;;;;;-149.78;100.00;50491.00;5021623;28;20038;-66
2021/11/26 07:34:22;;;;;;;6.80;0.70;;;;;;;-149.78;100.00;50444.06;5026135;28;20040;-66
2021/11/26 07:36:48;;;;;;;3.55;1.25;;;;;;;-149.78;100.00;50491.00;5029866;28;20055;-65
2021/11/26 07:39:14;;;;;;;8.00;0.98;;;;;;;-149.78;100.00;50440.16;5029657;28;20029;-66
2021/11/26 07:41:41;;;;;;;1.42;0.68;;;;;;;-149.78;100.00;50447.97;5016421;28;20033;-66
2021/11/26 07:44:07;;;;;;;11.05;1.33;;;;;;;-149.78;100.00;50424.50;5019750;28;20069;-65
2021/11/26 07:46:32;;;;;;;5.13;1.13;;;;;;;-149.78;100.00;50459.72;5019765;28;20535;-65
2021/11/26 07:48:58;;;;;;;4.45;1.08;;;;;;;-149.78;100.00;50483.19;5015042;28;20034;-66
2021/11/26 07:51:24;;;;;;;5.25;1.17;;;;;;;-149.78;100.00;50459.72;5014589;28;20042;-68
2021/11/26 07:53:49;;;;;;;7.10;1.45;;;;;;;-149.78;100.00;50465.56;5019742;28;20037;-63
2021/11/26 07:56:15;;;;;;;10.77;1.48;;;;;;;-149.78;100.00;50471.44;5022706;28;20041;-64
2021/11/26 07:58:41;;;;;;;13.68;1.33;;;;;;;-149.78;100.00;50459.72;5021410;28;20045;-66
2021/11/26 08:01:06;;;;;;;4.05;0.82;;;;;;;-149.78;100.00;50455.81;5019332;28;20041;-64
2021/11/26 08:03:32;;;;;;;5.70;1.00;;;;;;;-149.78;100.00;50471.44;5020836;28;20034;-65
2021/11/26 08:06:00;;;;;;;7.35;1.15;;;;;;;-149.78;100.00;50455.81;5016048;28;20047;-64
2021/11/26 08:08:25;;;;;;;3.55;2.05;;;;;;;-149.78;100.00;50440.16;5018431;28;20087;-65
2021/11/26 08:10:51;;;;;;;5.63;0.98;;;;;;;-149.78;100.00;50444.06;5017613;28;20033;-65
2021/11/26 08:13:17;;;;;;;10.55;1.17;;;;;;;-149.78;100.00;50440.16;5015355;28;20040;-65
2021/11/26 08:15:43;;;;;;;5.07;1.20;;;;;;;-149.78;100.00;50440.16;5021867;28;20485;-64
2021/11/26 08:18:09;;;;;;;10.45;2.05;;;;;;;-149.78;100.00;50483.19;5023821;28;20057;-65
2021/11/26 08:20:37;;;;;;;5.38;1.35;;;;;;;-149.78;100.00;50428.41;5000947;28;20422;-64
2021/11/26 08:23:03;;;;;;;10.05;1.50;;;;;;;-149.78;100.00;50401.03;5024718;28;20025;-64
2021/11/26 08:25:29;;;;;;;5.28;1.08;;;;;;;-149.78;100.00;50455.81;5020639;28;20045;-65
2021/11/26 08:27:55;;;;;;;4.70;1.48;;;;;;;-149.78;100.00;50463.63;5026792;28;20050;-64
2021/11/26 08:30:23;;;;;;;6.35;0.75;;;;;;;-149.78;100.00;50502.75;5018368;28;20044;-65
2021/11/26 08:32:49;;;;;;;7.32;1.17;;;;;;;-149.78;100.00;50457.75;5014418;28;20088;-64
2021/11/26 08:35:15;;;;;;;9.77;1.35;;;;;;;-149.78;100.00;50467.53;5021912;28;20048;-64
2021/11/26 08:37:42;;;;;;;10.65;1.67;;;;;;;-149.78;100.00;50426.47;5019895;28;20071;-64
2021/11/26 08:40:08;;;;;;;3.95;1.15;;;;;;;-149.78;100.00;50475.34;5019384;28;20521;-64
2021/11/26 08:42:34;;;;;;;6.60;0.85;;;;;;;-149.78;100.00;50404.94;5016855;28;20580;-64
2021/11/26 08:45:00;;;;;;;9.60;1.10;;;;;;;-149.78;100.00;50422.56;5018128;28;20038;-64
2021/11/26 08:47:27;;;;;;;9.00;1.17;;;;;;;-149.78;100.00;50477.31;5019797;28;20042;-64
2021/11/26 08:49:53;;;;;;;4.28;1.08;;;;;;;-149.78;100.00;50424.50;5020893;28;20405;-64
2021/11/26 08:52:19;;;;;;;7.90;1.00;;;;;;;-149.78;100.00;50420.59;5024976;28;20026;-64
2021/11/26 08:54:46;;;;;;;3.28;1.08;;;;;;;-149.78;100.00;50459.72;5017574;28;20056;-64
2021/11/26 08:57:15;;;;;;;7.50;1.10;;;;;;;-149.78;100.00;50459.72;5016226;28;20033;-64
2021/11/26 08:59:41;;;;;;;8.43;1.00;;;;;;;-149.78;100.00;50432.31;5016986;28;20045;-65
2021/11/26 09:02:08;;;;;;;6.47;1.33;;;;;;;-149.78;100.00;50440.16;5019747;28;20598;-64
2021/11/26 09:04:33;;;;;;;5.88;1.20;;;;;;;-149.78;100.00;50436.25;5017766;28;20033;-64
2021/11/26 09:06:59;;;;;;;5.53;1.10;;;;;;;-149.78;100.00;50436.25;5024485;28;20393;-64
2021/11/26 09:09:25;;;;;;;7.70;0.93;;;;;;;-149.78;100.00;50424.50;5021543;28;20370;-64
2021/11/26 09:11:52;;;;;;;9.70;1.27;;;;;;;-149.78;100.00;50455.81;5024291;28;20160;-64
2021/11/26 09:14:19;;;;;;;10.27;1.40;;;;;;;-149.78;100.00;50459.72;5017063;28;20026;-64
2021/11/26 09:16:45;;;;;;;9.35;1.85;;;;;;;-149.78;100.00;50436.25;5018930;28;20068;-63
2021/11/26 09:19:11;;;;;;;9.18;1.27;;;;;;;-149.78;100.00;50422.56;5022386;28;20477;-63
2021/11/26 09:21:38;;;;;;;10.15;1.40;;;;;;;-149.78;100.00;50397.13;5021967;28;20065;-64
2021/11/26 09:24:04;;;;;;;10.57;1.80;;;;;;;-149.78;100.00;50440.16;5019871;28;20132;-64
2021/11/26 09:26:31;;;;;;;13.45;1.67;;;;;;;-149.78;100.00;50432.31;5019307;28;20021;-64
2021/11/26 09:28:57;;;;;;;6.97;1.75;;;;;;;-149.78;100.00;50397.13;5019146;28;20136;-64
2021/11/26 09:31:23;;;;;;;6.95;1.80;;;;;;;-149.78;100.00;50447.97;5021771;28;20112;-64
2021/11/26 09:33:50;;;;;;;3.13;1.25;;;;;;;-149.78;100.00;50459.72;5030574;28;20431;-65
2021/11/26 09:36:15;;;;;;;8.15;2.00;;;;;;;-149.78;100.00;50422.56;5034544;28;20026;-64
2021/11/26 09:38:42;;;;;;;11.50;1.60;;;;;;;-149.78;100.00;50424.50;5025277;28;20113;-66
2021/11/26 09:41:11;;;;;;;6.20;1.40;;;;;;;-149.78;100.00;50440.16;5031578;28;20113;-65
2021/11/26 09:43:37;;;;;;;6.78;1.30;;;;;;;-149.78;100.00;50463.63;5029719;28;20026;-65
2021/11/26 09:46:05;;;;;;;4.22;1.15;;;;;;;-149.78;100.00;50451.88;5026776;28;20048;-65
2021/11/26 09:48:34;;;;;;;6.80;0.98;;;;;;;-149.78;100.00;50455.81;5027257;28;20430;-66
2021/11/26 09:51:00;;;;;;;9.98;1.52;;;;;;;-149.78;100.00;50447.97;5021098;28;20068;-66
2021/11/26 09:53:27;;;;;;;8.63;1.00;;;;;;;-149.78;100.00;50434.28;5030298;28;20037;-66
2021/11/26 09:55:59;;;;;;;5.15;1.25;;;;;;;-149.78;100.00;50424.50;5024092;28;20116;-66
2021/11/26 09:58:27;;;;;;;8.25;2.15;;;;;;;-149.78;100.00;50424.50;5021039;28;20143;-66
2021/11/26 10:00:55;;;;;;;8.55;1.27;;;;;;;-149.78;100.00;50420.59;5018075;28;20556;-66
2021/11/26 10:03:36;;;;;;;6.47;1.13;;;;;;;-149.78;100.00;50438.19;5021342;28;20066;-66
2021/11/26 10:06:02;;;;;;;5.82;1.30;;;;;;;-149.78;100.00;50420.59;5022341;28;20034;-66
2021/11/26 10:08:28;;;;;;;12.18;1.58;;;;;;;-149.78;100.00;50477.31;5026539;28;20033;-66
2021/11/26 10:11:01;;;;;;;7.72;1.50;;;;;;;-149.78;100.00;50447.97;5024119;28;20030;-66
2021/11/26 10:13:30;;;;;;;6.15;1.98;;;;;;;-149.78;100.00;50432.31;5025919;28;20029;-66
2021/11/26 10:16:07;;;;;;;7.70;1.52;;;;;;;-149.78;100.00;50436.25;5034834;28;20037;-66
2021/11/26 10:18:33;;;;;;;5.55;0.90;;;;;;;-149.78;100.00;50420.59;5034102;28;20033;-66
2021/11/26 10:21:04;;;;;;;5.50;1.25;;;;;;;-149.78;100.00;50397.13;5033421;28;20041;-66
2021/11/26 10:23:33;;;;;;;6.28;1.10;;;;;;;-149.78;100.00;50451.88;5034934;28;20041;-66
2021/11/26 10:26:19;;;;;;;6.93;1.48;;;;;;;-149.78;100.00;50463.63;5033636;28;20041;-66
2021/11/26 10:28:50;;;;;;;9.57;1.10;;;;;;;-149.78;100.00;50381.47;5029057;28;20065;-66
2021/11/26 10:31:41;;;;;;;6.35;1.55;;;;;;;-149.78;100.00;50404.94;5031993;28;20037;-66
2021/11/26 10:34:09;;;;;;;11.52;1.67;;;;;;;-149.78;100.00;50401.03;5023901;28;20038;-66
2021/11/26 10:36:43;;;;;;;9.50;1.30;;;;;;;-149.78;100.00;50451.88;5024565;28;20049;-66
2021/11/26 10:39:19;;;;;;;7.97;1.50;;;;;;;-149.78;100.00;50436.25;5027967;28;20048;-66
2021/11/26 10:41:49;;;;;;;11.32;1.20;;;;;;;-149.78;100.00;50395.16;5031969;28;20416;-66
2021/11/26 10:44:16;;;;;;;5.78;1.40;;;;;;;-149.78;100.00;50424.50;5028528;28;20173;-66
2021/11/26 10:46:59;;;;;;;5.75;1.35;;;;;;;-149.78;100.00;50424.50;5021565;28;20045;-65
2021/11/26 10:50:21;;;;;;;11.13;1.27;;;;;;;-149.78;100.00;50404.94;5027623;28;20029;-67
2021/11/26 10:52:37;;;;;;;1.88;0.80;;;;;;;-149.78;100.00;50424.50;5014707;28;20052;-67
2021/11/26 10:58:22;;;;;;;8.00;1.33;;;;;;;-149.78;100.00;50416.69;5027063;28;20037;-66
2021/11/26 11:00:48;;;;;;;5.35;1.13;;;;;;;-149.78;100.00;50420.59;5023216;28;20033;-66
2021/11/26 11:03:14;;;;;;;4.28;1.17;;;;;;;-149.78;100.00;50438.19;5023903;28;20086;-66
2021/11/26 11:05:43;;;;;;;8.63;1.85;;;;;;;-149.78;100.00;50424.50;5023444;28;20034;-67
2021/11/26 11:08:20;;;;;;;5.93;1.08;;;;;;;-149.78;100.00;50408.84;5034682;28;20038;-67
2021/11/26 11:10:46;;;;;;;7.95;1.30;;;;;;;-149.78;100.00;50424.50;5026262;28;20029;-66